Time;durP1;ratioP1;P1;durP2;ratioP2;P2;SDS_P1;SDS_P2;PMS_P1;PMS_P2;Temp;Humidity;BMP_temperature;BMP_pressure;BME280_temperature;BME280_humidity;BME280_pressure;Samples;Min_cycle;Max_cycle;Signal;HPM_P1;HPM_P2
2021/12/22 00:00:41;;;;;;;45.17;22.85;;;-2.60;99.90;;;;;;5004456;28;174718;-69
2021/12/22 00:03:09;;;;;;;42.47;22.00;;;-2.60;99.90;;;;;;5036752;28;20064;-69
2021/12/22 00:05:43;;;;;;;38.28;21.20;;;-2.70;99.90;;;;;;4995681;28;141365;-69
2021/12/22 00:08:12;;;;;;;44.95;23.13;;;-2.70;99.90;;;;;;5019256;28;20052;-70
2021/12/22 00:10:42;;;;;;;38.38;20.65;;;-2.80;99.90;;;;;;5017839;28;264143;-70
2021/12/22 00:13:08;;;;;;;39.17;22.10;;;-2.80;99.90;;;;;;5020402;28;20362;-69
2021/12/22 00:15:34;;;;;;;41.15;22.02;;;-2.80;99.90;;;;;;4989163;28;101910;-69
2021/12/22 00:18:00;;;;;;;39.83;21.38;;;-2.90;99.90;;;;;;5016925;28;20592;-69
2021/12/22 00:20:26;;;;;;;39.05;22.58;;;-2.90;99.90;;;;;;5003476;28;147636;-69
2021/12/22 00:22:53;;;;;;;45.85;23.55;;;-2.90;99.90;;;;;;5019863;28;20053;-69
2021/12/22 00:25:21;;;;;;;41.00;23.67;;;-2.90;99.90;;;;;;5001064;28;235953;-69
2021/12/22 00:27:47;;;;;;;43.85;22.92;;;-2.90;99.90;;;;;;5019856;28;20072;-69
2021/12/22 00:30:13;;;;;;;41.22;22.45;;;-2.90;99.90;;;;;;5006131;28;35180;-69
2021/12/22 00:32:40;;;;;;;42.83;21.70;;;-3.00;99.90;;;;;;5020329;28;20413;-69
2021/12/22 00:35:07;;;;;;;39.95;21.80;;;-3.00;99.90;;;;;;5002875;28;83955;-70
2021/12/22 00:37:33;;;;;;;42.67;23.33;;;-3.00;99.90;;;;;;5033795;28;20056;-69
2021/12/22 00:40:00;;;;;;;40.15;22.42;;;-3.10;99.90;;;;;;5027105;28;104459;-69
2021/12/22 00:42:26;;;;;;;36.88;20.92;;;-3.10;99.90;;;;;;5037818;28;20049;-69
2021/12/22 00:44:54;;;;;;;40.03;22.10;;;-3.10;99.90;;;;;;5017351;28;264984;-69
2021/12/22 00:47:22;;;;;;;43.17;23.10;;;-3.10;99.90;;;;;;5022875;28;20494;-69
2021/12/22 00:49:49;;;;;;;42.42;23.67;;;-3.20;99.90;;;;;;5001148;28;205656;-69
2021/12/22 00:52:15;;;;;;;47.90;24.15;;;-3.20;99.90;;;;;;5028976;23;20164;-70
2021/12/22 00:54:41;;;;;;;40.95;23.70;;;-3.20;99.90;;;;;;5008895;28;106766;-71
2021/12/22 00:57:09;;;;;;;42.40;23.48;;;-3.20;99.90;;;;;;5019952;28;20049;-71
2021/12/22 00:59:36;;;;;;;41.50;24.70;;;-3.20;99.90;;;;;;5010282;28;97163;-71
2021/12/22 01:02:06;;;;;;;40.17;22.53;;;-3.20;99.90;;;;;;5018015;28;20073;-71
2021/12/22 01:04:33;;;;;;;45.83;24.33;;;-3.20;99.90;;;;;;4997663;28;277015;-72
2021/12/22 01:06:59;;;;;;;47.13;25.25;;;-3.20;99.90;;;;;;4991991;28;20339;-71
2021/12/22 01:09:25;;;;;;;42.30;24.13;;;-3.20;99.90;;;;;;5001480;28;263518;-70
2021/12/22 01:11:51;;;;;;;43.75;25.00;;;-3.20;99.90;;;;;;5027508;28;20084;-71
2021/12/22 01:14:18;;;;;;;40.80;24.00;;;-3.20;99.90;;;;;;5001110;28;262436;-71
2021/12/22 01:16:48;;;;;;;43.43;24.20;;;-3.30;99.90;;;;;;5029130;28;20478;-70
2021/12/22 01:19:25;;;;;;;38.70;21.57;;;-3.30;99.90;;;;;;5001654;28;268788;-70
2021/12/22 01:22:00;;;;;;;39.00;21.52;;;-3.30;99.90;;;;;;5026261;28;20423;-70
2021/12/22 01:24:33;;;;;;;46.20;23.00;;;-3.30;99.90;;;;;;5000696;28;250238;-71
2021/12/22 01:27:08;;;;;;;39.38;21.15;;;-3.30;99.90;;;;;;5015304;28;20052;-71
2021/12/22 01:29:39;;;;;;;37.10;20.77;;;-3.40;99.90;;;;;;5002571;28;165898;-71
2021/12/22 01:32:08;;;;;;;41.40;21.63;;;-3.40;99.90;;;;;;5019523;28;20635;-71
2021/12/22 01:34:34;;;;;;;42.67;23.58;;;-3.40;99.90;;;;;;5001654;28;259716;-72
2021/12/22 01:37:01;;;;;;;43.80;21.73;;;-3.40;99.90;;;;;;5013757;28;20057;-70
2021/12/22 01:39:27;;;;;;;40.67;23.13;;;-3.50;99.90;;;;;;4999020;28;252728;-71
2021/12/22 01:41:54;;;;;;;36.00;21.53;;;-3.50;99.90;;;;;;5017005;28;20352;-70
2021/12/22 01:44:59;;;;;;;39.53;22.50;;;-3.50;99.90;;;;;;4998593;28;260002;-71
2021/12/22 01:50:16;;;;;;;38.27;23.07;;;-3.50;99.90;;;;;;4964565;28;177156;-71
2021/12/22 01:52:43;;;;;;;41.33;23.33;;;-3.50;99.90;;;;;;4963464;28;20054;-71
2021/12/22 01:55:29;;;;;;;47.85;25.38;;;-3.60;99.90;;;;;;4950296;28;182294;-71
2021/12/22 01:57:59;;;;;;;38.33;23.17;;;-3.50;99.90;;;;;;4980718;28;20082;-70
2021/12/22 02:00:26;;;;;;;37.20;21.90;;;-3.60;99.90;;;;;;4967573;28;84358;-70
2021/12/22 02:02:52;;;;;;;38.40;21.50;;;-3.60;99.90;;;;;;4948083;28;20050;-72
2021/12/22 02:05:19;;;;;;;41.03;21.30;;;-3.60;99.90;;;;;;4954724;28;155077;-71
2021/12/22 02:07:48;;;;;;;40.27;21.77;;;-3.60;99.90;;;;;;4979349;28;20054;-72
2021/12/22 02:12:50;;;;;;;42.20;23.92;;;-3.70;99.90;;;;;;4964187;28;20050;-72
2021/12/22 02:15:17;;;;;;;41.55;23.35;;;-3.60;99.90;;;;;;4964526;28;134192;-71
2021/12/22 02:17:43;;;;;;;46.83;24.13;;;-3.70;99.90;;;;;;4978041;28;21203;-70
2021/12/22 02:20:11;;;;;;;48.40;23.93;;;-3.60;99.90;;;;;;4951149;28;84088;-71
2021/12/22 02:22:40;;;;;;;54.87;27.07;;;-3.60;99.90;;;;;;4979082;28;20057;-71
2021/12/22 02:25:14;;;;;;;49.70;25.97;;;-3.50;99.90;;;;;;4966887;28;49620;-71
2021/12/22 02:27:52;;;;;;;46.60;24.83;;;-3.50;99.90;;;;;;4999204;28;20393;-71
2021/12/22 02:30:25;;;;;;;47.00;23.80;;;-3.50;99.90;;;;;;5007382;28;274321;-72
2021/12/22 02:35:41;;;;;;;50.40;25.57;;;-3.50;99.90;;;;;;5005260;28;271530;-71
2021/12/22 02:38:14;;;;;;;41.37;23.43;;;-3.60;99.90;;;;;;5012088;28;20353;-71
2021/12/22 02:40:46;;;;;;;47.77;24.37;;;-3.50;99.90;;;;;;4997276;28;247184;-71
2021/12/22 02:43:18;;;;;;;42.70;22.87;;;-3.50;99.90;;;;;;5029154;28;20054;-72
2021/12/22 02:45:45;;;;;;;46.00;25.20;;;-3.50;99.90;;;;;;5011948;28;278626;-72
2021/12/22 02:48:11;;;;;;;51.47;25.80;;;-3.50;99.90;;;;;;4996170;28;20061;-71
2021/12/22 02:50:37;;;;;;;45.80;24.47;;;-3.50;99.90;;;;;;5004998;28;93132;-71
2021/12/22 02:53:13;;;;;;;39.13;22.60;;;-3.50;99.90;;;;;;5016503;28;20065;-72
2021/12/22 02:56:05;;;;;;;38.13;21.47;;;-3.50;99.90;;;;;;4993295;28;102526;-72
2021/12/22 02:59:11;;;;;;;43.77;22.63;;;-3.50;99.90;;;;;;5017825;28;20042;-72
2021/12/22 03:06:24;;;;;;;39.93;20.50;;;-3.60;99.90;;;;;;5001993;28;253970;-72
2021/12/22 03:08:50;;;;;;;37.17;21.27;;;-3.70;99.90;;;;;;5018912;28;20540;-72
2021/12/22 03:11:17;;;;;;;41.00;22.43;;;-3.80;99.90;;;;;;5016759;28;266253;-73
2021/12/22 03:13:43;;;;;;;35.23;20.43;;;-3.80;99.90;;;;;;5017171;28;20057;-71
2021/12/22 03:16:09;;;;;;;41.50;20.47;;;-3.80;99.90;;;;;;5000580;28;151054;-72
2021/12/22 03:18:36;;;;;;;44.00;22.00;;;-3.80;99.90;;;;;;5019209;28;20061;-72
2021/12/22 03:21:15;;;;;;;36.83;21.60;;;-3.80;99.90;;;;;;5015618;28;254049;-71
2021/12/22 03:23:42;;;;;;;39.10;20.83;;;-3.80;99.90;;;;;;5016342;28;20065;-72
2021/12/22 03:26:08;;;;;;;38.53;20.80;;;-3.80;99.90;;;;;;5017775;28;267806;-72
2021/12/22 03:28:34;;;;;;;35.83;18.97;;;-3.80;99.90;;;;;;5034824;28;20060;-72
2021/12/22 03:31:02;;;;;;;36.00;19.83;;;-3.80;99.90;;;;;;5017137;28;259293;-72
2021/12/22 03:33:28;;;;;;;36.67;19.40;;;-3.80;99.90;;;;;;5022586;28;20414;-72
2021/12/22 03:35:54;;;;;;;40.93;20.43;;;-3.80;99.90;;;;;;5006117;28;184598;-71
2021/12/22 03:38:20;;;;;;;38.53;19.70;;;-3.90;99.90;;;;;;5018833;28;20114;-72
2021/12/22 03:40:46;;;;;;;35.63;19.23;;;-3.90;99.90;;;;;;5014594;28;274214;-71
2021/12/22 03:43:12;;;;;;;38.10;20.10;;;-3.90;99.90;;;;;;5021718;28;20054;-71
2021/12/22 03:45:38;;;;;;;37.50;21.17;;;-3.90;99.90;;;;;;5002830;28;211077;-72
2021/12/22 03:48:04;;;;;;;35.70;19.27;;;-3.90;99.90;;;;;;5012741;28;20383;-72
2021/12/22 03:50:31;;;;;;;37.07;19.90;;;-3.90;99.90;;;;;;4987656;28;197391;-72
2021/12/22 03:52:57;;;;;;;38.50;20.03;;;-3.90;99.90;;;;;;5018091;28;20053;-71
2021/12/22 03:55:23;;;;;;;42.67;20.87;;;-3.80;99.90;;;;;;5010708;28;261314;-72
2021/12/22 03:57:50;;;;;;;39.07;20.47;;;-3.90;99.90;;;;;;5020209;28;20382;-72
2021/12/22 04:00:17;;;;;;;41.30;20.03;;;-3.90;99.90;;;;;;5011521;28;278781;-72
2021/12/22 04:02:43;;;;;;;39.90;20.10;;;-3.90;99.90;;;;;;5004477;28;20053;-71
2021/12/22 04:05:10;;;;;;;35.50;19.50;;;-3.90;99.90;;;;;;5005703;28;232260;-71
2021/12/22 04:07:36;;;;;;;35.90;19.27;;;-3.90;99.90;;;;;;5019030;28;20486;-72
2021/12/22 04:10:19;;;;;;;40.97;20.30;;;-3.90;99.90;;;;;;5013500;28;20052;-72
2021/12/22 04:12:50;;;;;;;39.30;19.37;;;-3.80;99.90;;;;;;5018703;28;20050;-71
2021/12/22 04:15:16;;;;;;;38.55;19.63;;;-3.80;99.90;;;;;;5017155;28;64942;-72
2021/12/22 04:17:42;;;;;;;36.13;20.17;;;-3.80;99.90;;;;;;5014354;28;20049;-72
2021/12/22 04:20:10;;;;;;;34.83;20.27;;;-3.80;99.90;;;;;;5001199;28;253904;-72
2021/12/22 04:22:36;;;;;;;34.30;19.57;;;-3.80;99.90;;;;;;5023381;28;20495;-72
2021/12/22 04:25:05;;;;;;;36.17;18.67;;;-3.70;99.90;;;;;;5001751;28;259960;-71
2021/12/22 04:27:31;;;;;;;39.63;19.90;;;-3.80;99.90;;;;;;5002756;28;20458;-72
2021/12/22 04:29:57;;;;;;;38.63;19.70;;;-3.80;99.90;;;;;;5005380;28;268623;-72
2021/12/22 04:32:24;;;;;;;36.90;19.08;;;-3.80;99.90;;;;;;5017028;28;20053;-72
2021/12/22 04:34:50;;;;;;;35.03;17.70;;;-3.80;99.90;;;;;;5019497;28;164588;-71
2021/12/22 04:37:16;;;;;;;34.50;17.37;;;-3.70;99.90;;;;;;5027039;28;20052;-72
2021/12/22 04:39:42;;;;;;;36.30;19.17;;;-3.80;99.90;;;;;;5008940;28;254540;-73
2021/12/22 04:42:08;;;;;;;33.47;18.00;;;-3.80;99.90;;;;;;5016379;28;20057;-72
2021/12/22 04:44:34;;;;;;;35.27;17.97;;;-3.80;99.90;;;;;;5003308;28;183828;-73
2021/12/22 04:47:01;;;;;;;39.57;19.10;;;-3.80;99.90;;;;;;5018703;28;20056;-72
2021/12/22 04:49:27;;;;;;;35.07;18.63;;;-3.80;99.90;;;;;;4985680;28;230690;-72
2021/12/22 04:51:55;;;;;;;36.07;18.50;;;-3.80;99.90;;;;;;5016184;28;20377;-71
2021/12/22 04:56:54;;;;;;;38.37;18.17;;;-3.80;99.90;;;;;;5025515;28;20145;-72
2021/12/22 04:59:21;;;;;;;34.90;17.70;;;-3.90;99.90;;;;;;5001653;28;254192;-72
2021/12/22 05:01:47;;;;;;;35.10;17.73;;;-3.90;99.90;;;;;;5030397;28;20054;-72
2021/12/22 05:04:13;;;;;;;36.27;18.93;;;-3.90;99.90;;;;;;4985760;28;270113;-73
2021/12/22 05:06:40;;;;;;;36.63;19.40;;;-3.90;99.90;;;;;;5018839;28;20049;-72
2021/12/22 05:09:07;;;;;;;34.00;18.03;;;-3.90;99.90;;;;;;4998469;28;277573;-72
2021/12/22 05:11:34;;;;;;;33.67;18.17;;;-3.90;99.90;;;;;;5018916;28;20052;-73
2021/12/22 05:14:03;;;;;;;34.13;18.13;;;-3.90;99.90;;;;;;4982517;28;271616;-73
2021/12/22 05:16:29;;;;;;;36.63;18.67;;;-4.00;99.90;;;;;;5003776;28;20046;-73
2021/12/22 05:19:15;;;;;;;36.13;18.20;;;-3.90;99.90;;;;;;5018776;28;20049;-72
2021/12/22 05:21:42;;;;;;;34.87;18.43;;;-3.90;99.90;;;;;;4991822;28;20045;-72
2021/12/22 05:24:09;;;;;;;36.40;18.40;;;-3.90;99.90;;;;;;5000708;28;273852;-72
2021/12/22 05:26:35;;;;;;;33.67;18.63;;;-3.90;99.90;;;;;;5016958;28;20049;-72
2021/12/22 05:29:01;;;;;;;33.50;18.33;;;-3.90;99.90;;;;;;4999816;28;273809;-72
2021/12/22 05:31:27;;;;;;;34.43;18.00;;;-3.90;99.90;;;;;;5033609;28;20054;-72
2021/12/22 05:33:54;;;;;;;34.67;17.83;;;-3.90;99.90;;;;;;5021293;28;20045;-73
2021/12/22 05:36:20;;;;;;;33.80;17.97;;;-3.90;99.90;;;;;;5006902;28;65144;-72
2021/12/22 05:38:46;;;;;;;30.50;16.30;;;-3.90;99.90;;;;;;5020227;28;20064;-72
2021/12/22 05:41:12;;;;;;;31.80;17.40;;;-3.90;99.90;;;;;;5017608;28;276876;-73
2021/12/22 05:43:38;;;;;;;31.40;17.43;;;-4.00;99.90;;;;;;5018132;28;20049;-72
2021/12/22 05:46:05;;;;;;;31.37;17.03;;;-4.00;99.90;;;;;;5017881;28;257721;-73
2021/12/22 05:48:31;;;;;;;35.93;17.93;;;-4.00;99.90;;;;;;5020345;28;20041;-72
2021/12/22 05:50:58;;;;;;;32.70;17.70;;;-4.00;99.90;;;;;;5006338;28;131218;-73
2021/12/22 05:53:25;;;;;;;31.67;17.50;;;-4.00;99.90;;;;;;5035352;28;20057;-73
2021/12/22 05:55:52;;;;;;;32.60;17.23;;;-4.00;99.90;;;;;;5008906;28;20063;-73
2021/12/22 05:58:18;;;;;;;34.23;18.33;;;-4.00;99.90;;;;;;5019680;28;20518;-72
2021/12/22 06:00:44;;;;;;;32.57;17.43;;;-4.00;99.90;;;;;;5009359;28;20055;-72
2021/12/22 06:03:11;;;;;;;33.85;17.63;;;-4.00;99.90;;;;;;5017083;28;20057;-72
2021/12/22 06:05:39;;;;;;;39.00;18.70;;;-4.00;99.90;;;;;;5008973;28;186993;-72
2021/12/22 06:08:07;;;;;;;34.23;17.87;;;-4.00;99.90;;;;;;5018495;28;20041;-72
2021/12/22 06:10:34;;;;;;;38.13;18.33;;;-4.00;99.90;;;;;;5012155;28;272134;-71
2021/12/22 06:13:05;;;;;;;37.27;18.03;;;-4.00;99.90;;;;;;4999277;28;20068;-72
2021/12/22 06:15:33;;;;;;;36.08;17.75;;;-4.00;99.90;;;;;;5008371;28;117734;-73
2021/12/22 06:18:00;;;;;;;33.33;17.73;;;-3.90;99.90;;;;;;5018126;28;20064;-72
2021/12/22 06:20:27;;;;;;;38.13;18.17;;;-3.90;99.90;;;;;;5007300;28;103259;-74
2021/12/22 06:22:54;;;;;;;37.17;17.67;;;-4.00;99.90;;;;;;5018988;28;20057;-72
2021/12/22 06:25:22;;;;;;;33.73;18.13;;;-4.00;99.90;;;;;;4986395;28;216469;-73
2021/12/22 06:27:48;;;;;;;34.00;18.10;;;-3.90;99.90;;;;;;5018458;28;20433;-73
2021/12/22 06:30:14;;;;;;;36.93;18.30;;;-4.00;99.90;;;;;;4999415;28;276068;-73
2021/12/22 06:32:41;;;;;;;36.00;17.50;;;-4.00;99.90;;;;;;5021540;28;20483;-73
2021/12/22 06:35:08;;;;;;;34.67;17.87;;;-4.00;99.90;;;;;;5006076;28;265084;-72
2021/12/22 06:37:34;;;;;;;33.85;17.83;;;-4.00;99.90;;;;;;5001057;28;20080;-72
2021/12/22 06:40:00;;;;;;;35.88;18.17;;;-4.00;99.90;;;;;;5018101;28;237830;-73
2021/12/22 06:42:26;;;;;;;35.20;17.27;;;-4.00;99.90;;;;;;5023367;28;20057;-73
2021/12/22 06:44:52;;;;;;;33.58;16.85;;;-4.00;99.90;;;;;;5004928;28;250406;-73
2021/12/22 06:47:19;;;;;;;33.13;16.60;;;-4.00;99.90;;;;;;5014380;28;20525;-72
2021/12/22 06:49:45;;;;;;;38.67;17.03;;;-3.90;99.90;;;;;;4991194;28;85484;-72
2021/12/22 06:52:11;;;;;;;30.73;16.93;;;-4.00;99.90;;;;;;5039375;23;20056;-69
2021/12/22 06:54:37;;;;;;;35.30;16.65;;;-4.00;99.90;;;;;;4981905;28;252828;-68
2021/12/22 06:57:03;;;;;;;34.00;15.93;;;-4.00;99.90;;;;;;5017265;28;20044;-69
2021/12/22 06:59:31;;;;;;;33.17;16.83;;;-4.00;99.90;;;;;;4997626;28;173280;-68
2021/12/22 07:01:57;;;;;;;36.10;17.07;;;-4.00;99.90;;;;;;5014847;28;20111;-70
2021/12/22 07:04:24;;;;;;;38.30;17.17;;;-4.00;99.90;;;;;;5000664;28;267496;-68
2021/12/22 07:06:50;;;;;;;33.00;17.50;;;-3.90;99.90;;;;;;5010929;28;20038;-68
2021/12/22 07:09:16;;;;;;;32.30;16.73;;;-4.00;99.90;;;;;;4992373;28;259799;-68
2021/12/22 07:11:43;;;;;;;31.57;16.53;;;-4.00;99.90;;;;;;4989570;28;20045;-68
2021/12/22 07:14:27;;;;;;;32.33;17.40;;;-4.00;99.90;;;;;;5031516;28;20049;-69
2021/12/22 07:16:56;;;;;;;35.07;16.93;;;-4.00;99.90;;;;;;5005979;28;20116;-69
2021/12/22 07:19:22;;;;;;;34.72;16.98;;;-4.00;99.90;;;;;;5013085;28;277211;-69
2021/12/22 07:21:49;;;;;;;33.28;16.73;;;-4.00;99.90;;;;;;5031559;28;20064;-68
2021/12/22 07:24:15;;;;;;;32.57;17.03;;;-4.00;99.90;;;;;;5012156;28;269206;-68
2021/12/22 07:26:41;;;;;;;33.00;16.77;;;-4.00;99.90;;;;;;5027230;28;20402;-69
2021/12/22 07:29:07;;;;;;;34.47;17.10;;;-4.00;99.90;;;;;;5010464;28;275964;-69
2021/12/22 07:31:34;;;;;;;34.27;16.93;;;-4.00;99.90;;;;;;5017015;28;20244;-69
2021/12/22 07:34:14;;;;;;;33.95;16.80;;;-4.00;99.90;;;;;;4980850;28;274004;-68
2021/12/22 07:36:49;;;;;;;35.42;17.60;;;-3.90;99.90;;;;;;4997134;28;20068;-69
2021/12/22 07:39:15;;;;;;;32.33;17.33;;;-3.90;99.90;;;;;;4981440;28;272087;-69
2021/12/22 07:41:41;;;;;;;34.73;17.60;;;-4.00;99.90;;;;;;5000210;28;20054;-69
2021/12/22 07:44:08;;;;;;;34.27;16.83;;;-3.90;99.90;;;;;;4999508;28;252895;-69
2021/12/22 07:46:34;;;;;;;37.30;17.52;;;-3.90;99.90;;;;;;4999963;28;20073;-70
2021/12/22 07:49:00;;;;;;;35.40;18.17;;;-3.90;99.90;;;;;;4990949;28;275120;-67
2021/12/22 07:51:26;;;;;;;35.87;17.87;;;-3.90;99.90;;;;;;5000123;28;20082;-69
2021/12/22 07:53:52;;;;;;;36.90;18.30;;;-3.90;99.90;;;;;;5015590;28;20058;-70
2021/12/22 07:56:18;;;;;;;39.97;18.90;;;-3.80;99.90;;;;;;4993427;28;261948;-70
2021/12/22 07:58:44;;;;;;;39.80;19.70;;;-3.80;99.90;;;;;;5016364;28;20053;-70
2021/12/22 08:01:10;;;;;;;36.43;18.77;;;-3.80;99.90;;;;;;5000002;28;174603;-70
2021/12/22 08:03:36;;;;;;;36.40;18.10;;;-3.80;99.90;;;;;;5019246;28;20109;-69
2021/12/22 08:06:03;;;;;;;35.83;18.58;;;-3.80;99.90;;;;;;4986839;28;250694;-70
2021/12/22 08:08:29;;;;;;;33.25;17.35;;;-3.80;99.90;;;;;;5012363;28;20057;-71
2021/12/22 08:10:55;;;;;;;38.80;18.27;;;-3.80;99.90;;;;;;4995052;28;43235;-70
2021/12/22 08:13:21;;;;;;;36.87;18.13;;;-3.70;99.90;;;;;;5019439;28;20045;-69
2021/12/22 08:15:47;;;;;;;34.27;17.73;;;-3.70;99.90;;;;;;5005034;28;246730;-70
2021/12/22 08:18:13;;;;;;;34.77;17.90;;;-3.70;99.90;;;;;;4999258;28;20093;-70
2021/12/22 08:20:40;;;;;;;35.43;18.00;;;-3.70;99.90;;;;;;4995890;28;271767;-70
2021/12/22 08:23:06;;;;;;;34.50;16.57;;;-3.70;99.90;;;;;;5014049;28;20068;-67
2021/12/22 08:25:32;;;;;;;36.77;17.83;;;-3.60;99.90;;;;;;4992554;28;21433;-71
2021/12/22 08:27:58;;;;;;;34.88;17.38;;;-3.60;99.90;;;;;;5020079;28;20053;-70
2021/12/22 08:30:25;;;;;;;38.05;18.27;;;-3.60;99.90;;;;;;4997032;28;272086;-70
2021/12/22 08:32:51;;;;;;;32.05;17.23;;;-3.50;99.90;;;;;;5023361;28;20037;-70
2021/12/22 08:35:20;;;;;;;37.93;17.13;;;-3.50;99.90;;;;;;4998706;28;254466;-70
2021/12/22 08:40:30;;;;;;;40.47;18.27;;;-3.40;99.90;;;;;;4984862;28;109137;-70
2021/12/22 08:42:56;;;;;;;36.83;17.50;;;-3.30;99.90;;;;;;4994384;28;20410;-69
2021/12/22 08:45:24;;;;;;;35.92;18.05;;;-3.30;99.90;;;;;;4987489;28;172665;-69
2021/12/22 08:47:50;;;;;;;39.53;17.53;;;-3.20;99.90;;;;;;5016436;28;20050;-68
2021/12/22 08:50:19;;;;;;;36.58;18.55;;;-3.20;99.90;;;;;;5017219;28;256871;-68
2021/12/22 08:52:45;;;;;;;34.60;17.07;;;-3.10;99.90;;;;;;5020256;28;20050;-68
2021/12/22 08:55:12;;;;;;;35.33;18.33;;;-3.10;99.90;;;;;;5017859;28;273717;-72
2021/12/22 08:57:38;;;;;;;37.13;18.05;;;-3.00;99.90;;;;;;5016749;28;20137;-69
2021/12/22 09:00:10;;;;;;;37.85;18.80;;;-3.00;99.90;;;;;;4990350;28;159850;-70
2021/12/22 09:02:37;;;;;;;;;;;-3.00;99.90;;;;;;5002140;28;20060;-69
2021/12/22 09:05:04;;;;;;;34.65;16.05;;;-2.90;99.90;;;;;;4975913;28;164777;-69
2021/12/22 09:07:31;;;;;;;33.63;16.67;;;-2.90;99.90;;;;;;4996092;28;20057;-69
2021/12/22 09:09:57;;;;;;;42.05;18.02;;;-2.80;99.90;;;;;;4993561;28;230911;-69
2021/12/22 09:12:26;;;;;;;35.53;17.60;;;-2.70;99.90;;;;;;5002041;28;20064;-68
2021/12/22 09:14:52;;;;;;;34.03;17.08;;;-2.70;99.90;;;;;;4998040;28;240636;-69
2021/12/22 09:17:18;;;;;;;34.83;18.00;;;-2.60;99.90;;;;;;5001555;28;20053;-69
2021/12/22 09:19:44;;;;;;;36.67;17.67;;;-2.60;99.90;;;;;;4999759;28;269852;-69
2021/12/22 09:22:10;;;;;;;35.00;18.33;;;-2.60;99.90;;;;;;4998840;28;20057;-69
2021/12/22 09:24:36;;;;;;;34.85;17.92;;;-2.60;99.90;;;;;;4997758;28;267382;-69
2021/12/22 09:27:03;;;;;;;35.50;17.45;;;-2.60;99.90;;;;;;5002807;28;20057;-69
2021/12/22 09:29:29;;;;;;;34.63;18.25;;;-2.50;99.90;;;;;;4998045;28;266308;-69
2021/12/22 09:31:57;;;;;;;37.30;18.95;;;-2.50;99.90;;;;;;5020690;28;20042;-69
2021/12/22 09:34:23;;;;;;;32.90;18.38;;;-2.40;99.90;;;;;;5001933;28;265655;-70
2021/12/22 09:36:50;;;;;;;36.72;18.70;;;-2.40;99.90;;;;;;5009743;28;20581;-69
2021/12/22 09:39:16;;;;;;;33.22;17.95;;;-2.30;99.90;;;;;;4976518;28;256922;-69
2021/12/22 09:41:42;;;;;;;35.97;18.25;;;-2.30;99.90;;;;;;5019123;28;20396;-69
2021/12/22 09:44:08;;;;;;;35.42;17.88;;;-2.20;99.90;;;;;;5000518;28;252101;-69
2021/12/22 09:46:38;;;;;;;32.70;17.95;;;-2.20;99.90;;;;;;5019028;28;20061;-69
2021/12/22 09:49:19;;;;;;;35.92;18.30;;;-2.10;99.90;;;;;;4990126;28;258114;-69
2021/12/22 09:54:31;;;;;;;33.33;17.40;;;-2.00;99.90;;;;;;4982492;28;218685;-69
2021/12/22 09:56:57;;;;;;;35.83;17.80;;;-1.90;99.90;;;;;;5013868;28;20038;-69
2021/12/22 09:59:24;;;;;;;30.15;17.00;;;-1.90;99.90;;;;;;4999028;28;254814;-69
2021/12/22 10:01:50;;;;;;;33.40;17.85;;;-1.90;99.90;;;;;;4997458;28;20425;-69
2021/12/22 10:04:16;;;;;;;33.15;17.88;;;-1.80;99.90;;;;;;4970689;28;268430;-69
2021/12/22 10:06:43;;;;;;;32.15;17.55;;;-1.80;99.90;;;;;;5014885;28;20080;-69
2021/12/22 10:09:09;;;;;;;32.85;17.25;;;-1.80;99.90;;;;;;5000835;28;265797;-69
2021/12/22 10:11:43;;;;;;;30.85;16.73;;;-1.70;99.90;;;;;;5001342;28;20494;-69
2021/12/22 10:14:21;;;;;;;36.03;17.63;;;-1.60;99.90;;;;;;4978179;28;260163;-69
2021/12/22 10:16:50;;;;;;;37.20;17.80;;;-1.60;99.90;;;;;;5016984;28;20054;-69
2021/12/22 10:19:18;;;;;;;31.92;16.88;;;-1.50;99.90;;;;;;5002869;28;259665;-69
2021/12/22 10:21:53;;;;;;;33.28;17.02;;;-1.40;99.90;;;;;;5017975;28;20091;-69
2021/12/22 10:24:42;;;;;;;30.10;16.23;;;-1.40;99.90;;;;;;4996031;28;267866;-70
2021/12/22 10:27:19;;;;;;;30.20;17.13;;;-1.30;99.90;;;;;;4992888;28;20418;-69
2021/12/22 10:29:46;;;;;;;30.40;16.95;;;-1.20;99.90;;;;;;4998506;28;264610;-69
2021/12/22 10:32:15;;;;;;;35.20;16.52;;;-1.20;99.90;;;;;;5020040;28;20411;-69
2021/12/22 10:34:58;;;;;;;30.77;16.20;;;-1.10;99.90;;;;;;4980124;28;239545;-69
2021/12/22 10:37:42;;;;;;;35.33;18.27;;;-1.10;99.90;;;;;;5005445;28;20058;-69
2021/12/22 10:40:34;;;;;;;30.92;16.33;;;-1.00;99.90;;;;;;4999693;28;267723;-70
2021/12/22 10:43:03;;;;;;;31.67;17.08;;;-0.90;99.90;;;;;;5019510;28;20053;-69
2021/12/22 10:45:31;;;;;;;29.88;17.23;;;-0.90;99.90;;;;;;4988621;28;266277;-69
2021/12/22 10:50:46;;;;;;;29.50;15.27;;;-0.80;99.90;;;;;;5000927;28;251703;-69
2021/12/22 10:53:14;;;;;;;30.02;16.67;;;-0.70;99.90;;;;;;5018356;28;20053;-69
2021/12/22 10:55:42;;;;;;;27.92;15.93;;;-0.70;99.90;;;;;;4990905;28;115428;-69
2021/12/22 10:58:32;;;;;;;29.48;16.23;;;-0.60;99.90;;;;;;5023195;28;20056;-69
2021/12/22 11:01:13;;;;;;;28.45;15.85;;;-0.60;99.90;;;;;;5003083;28;257017;-69
2021/12/22 11:03:51;;;;;;;28.38;15.98;;;-0.50;99.90;;;;;;5018085;28;20053;-69
2021/12/22 11:06:20;;;;;;;28.13;15.80;;;-0.50;99.90;;;;;;4988239;28;113266;-70
2021/12/22 11:09:02;;;;;;;26.73;14.82;;;-0.40;99.90;;;;;;5007880;28;20061;-69
2021/12/22 11:11:32;;;;;;;30.38;17.05;;;-0.40;99.90;;;;;;4976074;28;20076;-69
2021/12/22 11:14:26;;;;;;;28.63;16.00;;;-0.40;99.90;;;;;;4990110;28;270147;-69
2021/12/22 11:17:06;;;;;;;24.08;13.77;;;-0.30;99.90;;;;;;5004124;28;20053;-69
2021/12/22 11:20:06;;;;;;;28.80;15.25;;;-0.30;99.90;;;;;;4994352;28;255119;-69
2021/12/22 11:25:19;;;;;;;27.70;14.65;;;-0.20;99.90;;;;;;4982718;28;179384;-69
2021/12/22 11:27:49;;;;;;;29.55;15.65;;;-0.20;99.90;;;;;;5001680;28;20049;-69
2021/12/22 11:30:15;;;;;;;27.50;15.80;;;-0.10;99.90;;;;;;5004098;28;240404;-68
2021/12/22 11:32:41;;;;;;;27.67;15.38;;;-0.10;99.90;;;;;;5007150;28;20061;-68
2021/12/22 11:35:10;;;;;;;27.00;15.60;;;-0.10;99.90;;;;;;5003604;28;172254;-68
2021/12/22 11:37:37;;;;;;;24.80;15.43;;;-0.10;99.90;;;;;;5023751;28;20057;-68
2021/12/22 11:40:08;;;;;;;31.88;16.25;;;-0.10;99.90;;;;;;5001416;28;254654;-69
2021/12/22 11:42:38;;;;;;;27.73;16.15;;;-0.10;99.90;;;;;;5021014;28;20190;-69
2021/12/22 11:45:20;;;;;;;32.42;18.10;;;0.00;99.90;;;;;;5002242;28;266907;-68
2021/12/22 11:47:53;;;;;;;29.70;16.85;;;0.00;99.90;;;;;;5007486;28;20062;-69
2021/12/22 11:50:21;;;;;;;28.00;16.30;;;0.00;99.90;;;;;;4994893;28;87081;-68
2021/12/22 11:53:02;;;;;;;30.45;16.40;;;0.00;99.90;;;;;;5027677;28;20574;-68
2021/12/22 11:55:50;;;;;;;24.10;14.38;;;0.10;99.90;;;;;;5000915;28;253342;-68
2021/12/22 11:58:25;;;;;;;28.67;16.92;;;0.10;99.90;;;;;;5000457;28;20049;-68
2021/12/22 12:00:54;;;;;;;25.92;15.75;;;0.10;99.90;;;;;;5005451;28;257494;-69
2021/12/22 12:03:36;;;;;;;25.98;15.18;;;0.20;99.90;;;;;;5020501;28;20037;-68
2021/12/22 12:06:16;;;;;;;25.70;14.95;;;0.20;99.90;;;;;;4969134;28;209284;-68
2021/12/22 12:08:50;;;;;;;26.88;14.98;;;0.30;99.90;;;;;;5002944;28;20069;-69
2021/12/22 12:11:32;;;;;;;30.15;15.40;;;0.30;99.90;;;;;;4995946;28;275422;-70
2021/12/22 12:14:09;;;;;;;27.08;14.57;;;0.30;99.90;;;;;;4991039;28;254256;-68
2021/12/22 12:22:27;;;;;;;28.00;15.45;;;1.20;99.90;;;;;;5001991;28;20519;-70
2021/12/22 12:25:08;;;;;;;26.52;15.98;;;1.80;99.90;;;;;;5004300;28;268942;-70
2021/12/22 12:27:50;;;;;;;30.25;15.70;;;2.30;99.90;;;;;;5032955;28;20049;-70
2021/12/22 12:30:45;;;;;;;25.15;13.30;;;2.90;99.90;;;;;;4991581;28;133496;-70
2021/12/22 12:33:23;;;;;;;26.05;14.32;;;2.90;99.90;;;;;;4972880;28;20066;-70
2021/12/22 12:35:56;;;;;;;20.42;12.70;;;2.70;99.90;;;;;;4948520;28;137219;-70
2021/12/22 12:38:27;;;;;;;23.30;13.32;;;2.80;99.90;;;;;;4955155;28;20066;-70
2021/12/22 12:41:02;;;;;;;22.65;13.52;;;3.00;99.90;;;;;;4953815;28;141462;-72
2021/12/22 12:46:23;;;;;;;23.70;14.13;;;3.30;99.90;;;;;;4940823;28;193339;-71
2021/12/22 12:48:54;;;;;;;27.47;13.57;;;3.20;99.90;;;;;;4952709;28;20443;-70
2021/12/22 12:51:32;;;;;;;21.92;12.75;;;3.30;99.90;;;;;;4934952;28;228296;-70
2021/12/22 12:54:22;;;;;;;23.00;13.32;;;3.40;99.90;;;;;;5004165;23;268672;-75
2021/12/22 12:56:54;;;;;;;22.60;12.70;;;3.40;99.90;;;;;;4911690;28;20388;-74
2021/12/22 12:59:27;;;;;;;22.05;13.23;;;3.30;99.90;;;;;;4909010;29;211742;-75
2021/12/22 13:01:57;;;;;;;21.73;12.68;;;3.20;99.90;;;;;;4927355;28;20382;-74
2021/12/22 13:04:23;;;;;;;20.13;12.38;;;3.20;99.90;;;;;;4900285;28;225176;-74
2021/12/22 13:06:55;;;;;;;21.35;12.82;;;3.20;99.90;;;;;;4926849;28;20086;-75
2021/12/22 13:09:25;;;;;;;24.35;14.13;;;3.20;99.90;;;;;;4896445;29;104620;-74